createdAt,value
2022-09-03T00:00:45.835Z,22.68
2022-09-03T00:01:45.928Z,22.73
2022-09-03T00:02:46.082Z,22.73
2022-09-03T00:03:45.803Z,22.73
2022-09-03T00:04:45.787Z,22.68
2022-09-03T00:05:45.777Z,22.73
2022-09-03T00:06:45.765Z,22.73
2022-09-03T00:07:45.752Z,22.73
2022-09-03T00:08:45.740Z,22.73
2022-09-03T00:09:45.722Z,22.79
2022-09-03T00:10:45.712Z,22.73
2022-09-03T00:11:45.694Z,22.73
2022-09-03T00:12:45.687Z,22.68
2022-09-03T00:13:45.671Z,22.73
2022-09-03T00:14:45.653Z,22.73
2022-09-03T00:15:45.743Z,22.79
2022-09-03T00:16:45.637Z,22.84
2022-09-03T00:17:45.623Z,22.73
2022-09-03T00:18:45.611Z,22.79
2022-09-03T00:19:45.594Z,22.68
2022-09-03T00:20:45.578Z,22.73
2022-09-03T00:21:45.569Z,22.68
2022-09-03T00:22:45.563Z,22.73
2022-09-03T00:23:45.546Z,22.79
2022-09-03T00:24:45.528Z,22.73
2022-09-03T00:25:45.517Z,22.73
2022-09-03T00:26:45.507Z,22.73
2022-09-03T00:27:45.497Z,22.73
2022-09-03T00:28:45.482Z,22.73
2022-09-03T00:29:45.463Z,22.73
2022-09-03T00:30:45.480Z,22.68
2022-09-03T00:31:45.440Z,22.73
2022-09-03T00:32:45.428Z,22.73
2022-09-03T00:33:45.411Z,22.68
2022-09-03T00:34:45.400Z,22.68
2022-09-03T00:35:45.390Z,22.68
2022-09-03T00:36:45.378Z,22.73
2022-09-03T00:37:45.358Z,22.73
2022-09-03T00:38:45.356Z,22.73
2022-09-03T00:39:45.410Z,22.73
2022-09-03T00:40:45.324Z,22.73
2022-09-03T00:41:45.317Z,22.63
2022-09-03T00:42:45.303Z,22.73
2022-09-03T00:43:45.282Z,22.68
2022-09-03T00:44:45.275Z,22.73
2022-09-03T00:45:45.265Z,22.68
2022-09-03T00:46:45.294Z,22.68
2022-09-03T00:47:45.234Z,22.73
2022-09-03T00:48:45.217Z,22.73
2022-09-03T00:49:45.205Z,22.68
2022-09-03T00:50:45.201Z,22.73
2022-09-03T00:51:45.180Z,22.68
2022-09-03T00:52:45.166Z,22.73
2022-09-03T00:53:45.154Z,22.73
2022-09-03T00:54:45.141Z,22.73
2022-09-03T00:55:45.132Z,22.63
2022-09-03T00:56:45.122Z,22.68
2022-09-03T00:57:47.560Z,22.73
2022-09-03T00:58:45.090Z,22.73
2022-09-03T00:59:45.080Z,22.73
2022-09-03T01:00:45.068Z,22.73
2022-09-03T01:01:45.196Z,22.73
2022-09-03T01:02:45.199Z,22.73
2022-09-03T01:03:45.025Z,22.73
2022-09-03T01:04:45.014Z,22.68
2022-09-03T01:05:44.999Z,22.68
2022-09-03T01:06:44.985Z,22.63
2022-09-03T01:07:44.973Z,22.79
2022-09-03T01:08:44.956Z,22.73
2022-09-03T01:09:44.946Z,22.68
2022-09-03T01:10:44.937Z,22.73
2022-09-03T01:11:44.919Z,22.63
2022-09-03T01:12:44.912Z,22.73
2022-09-03T01:13:44.895Z,22.79
2022-09-03T01:14:44.884Z,22.68
2022-09-03T01:15:45.025Z,22.73
2022-09-03T01:16:44.856Z,22.68
2022-09-03T01:17:44.850Z,22.68
2022-09-03T01:18:44.827Z,22.68
2022-09-03T01:19:44.821Z,22.68
2022-09-03T01:20:44.810Z,22.68
2022-09-03T01:21:44.789Z,22.73
2022-09-03T01:22:44.783Z,22.68
2022-09-03T01:23:44.767Z,22.73
2022-09-03T01:24:44.752Z,22.68
2022-09-03T01:25:44.743Z,22.73
2022-09-03T01:26:44.731Z,22.73
2022-09-03T01:27:44.720Z,22.79
2022-09-03T01:28:44.701Z,22.73
2022-09-03T01:29:44.693Z,22.68
2022-09-03T01:30:44.706Z,22.73
2022-09-03T01:31:44.677Z,22.73
2022-09-03T01:32:44.652Z,22.73
2022-09-03T01:33:44.638Z,22.73
2022-09-03T01:34:44.627Z,22.68
2022-09-03T01:35:44.615Z,22.68
2022-09-03T01:36:44.599Z,22.73
2022-09-03T01:37:44.591Z,22.68
2022-09-03T01:38:44.574Z,22.73
2022-09-03T01:39:44.612Z,22.73
2022-09-03T01:40:44.551Z,22.73
2022-09-03T01:41:44.537Z,22.73
2022-09-03T01:42:44.521Z,22.73
2022-09-03T01:43:45.486Z,22.79
2022-09-03T01:44:44.501Z,22.73
2022-09-03T01:45:51.054Z,22.68
2022-09-03T01:46:44.534Z,22.68
2022-09-03T01:47:44.458Z,22.68
2022-09-03T01:48:44.442Z,22.73
2022-09-03T01:49:44.435Z,22.79
2022-09-03T01:50:44.425Z,22.79
2022-09-03T01:51:44.407Z,22.73
2022-09-03T01:52:44.394Z,22.68
2022-09-03T01:53:44.383Z,22.73
2022-09-03T01:54:44.367Z,22.68
2022-09-03T01:55:44.353Z,22.68
2022-09-03T01:56:44.345Z,22.79
2022-09-03T01:57:44.329Z,22.73
2022-09-03T01:58:44.319Z,22.84
2022-09-03T01:59:44.303Z,22.79
2022-09-03T02:00:44.295Z,22.79
2022-09-03T02:01:44.402Z,22.73
2022-09-03T02:02:44.322Z,22.84
2022-09-03T02:03:44.255Z,22.79
2022-09-03T02:04:44.241Z,22.68
2022-09-03T02:05:44.227Z,22.73
2022-09-03T02:06:44.214Z,22.68
2022-09-03T02:07:44.203Z,22.73
2022-09-03T02:08:44.186Z,22.73
2022-09-03T02:09:44.176Z,22.73
2022-09-03T02:10:44.162Z,22.63
2022-09-03T02:11:44.148Z,22.63
2022-09-03T02:12:44.138Z,22.73
2022-09-03T02:13:44.128Z,22.73
2022-09-03T02:14:44.118Z,22.68
2022-09-03T02:15:44.200Z,22.68
2022-09-03T02:16:44.083Z,22.68
2022-09-03T02:17:44.071Z,22.68
2022-09-03T02:18:44.057Z,22.73
2022-09-03T02:19:44.044Z,22.68
2022-09-03T02:20:44.032Z,22.73
2022-09-03T02:21:44.020Z,22.68
2022-09-03T02:22:44.011Z,22.73
2022-09-03T02:23:44.001Z,22.73
2022-09-03T02:24:43.983Z,22.68
2022-09-03T02:25:43.969Z,22.73
2022-09-03T02:26:43.958Z,22.73
2022-09-03T02:27:43.948Z,22.68
2022-09-03T02:28:43.933Z,22.63
2022-09-03T02:29:43.923Z,22.73
2022-09-03T02:30:43.971Z,22.73
2022-09-03T02:31:43.894Z,22.73
2022-09-03T02:32:43.874Z,22.79
2022-09-03T02:33:43.865Z,22.68
2022-09-03T02:34:43.853Z,22.68
2022-09-03T02:35:43.841Z,22.79
2022-09-03T02:36:43.833Z,22.73
2022-09-03T02:37:43.818Z,22.79
2022-09-03T02:38:43.806Z,22.73
2022-09-03T02:39:43.830Z,22.73
2022-09-03T02:40:43.777Z,22.73
2022-09-03T02:41:43.782Z,22.73
2022-09-03T02:42:43.752Z,22.79
2022-09-03T02:43:43.735Z,22.79
2022-09-03T02:44:43.734Z,22.73
2022-09-03T02:45:43.756Z,22.63
2022-09-03T02:46:43.702Z,22.73
2022-09-03T02:47:43.688Z,22.73
2022-09-03T02:48:43.672Z,22.79
2022-09-03T02:49:43.656Z,22.79
2022-09-03T02:50:43.649Z,22.68
2022-09-03T02:51:43.634Z,22.73
2022-09-03T02:52:43.628Z,22.79
2022-09-03T02:53:43.609Z,22.84
2022-09-03T02:54:43.598Z,22.73
2022-09-03T02:55:43.582Z,22.73
2022-09-03T02:56:43.571Z,22.68
2022-09-03T02:57:43.557Z,22.84
2022-09-03T02:58:43.544Z,22.68
2022-09-03T02:59:43.531Z,22.73
2022-09-03T03:00:43.522Z,22.68
2022-09-03T03:01:43.560Z,22.68
2022-09-03T03:02:43.585Z,22.73
2022-09-03T03:03:43.480Z,22.73
2022-09-03T03:04:43.467Z,22.73
2022-09-03T03:05:43.457Z,22.79
2022-09-03T03:06:43.441Z,22.73
2022-09-03T03:07:43.430Z,22.73
2022-09-03T03:08:43.413Z,22.68
2022-09-03T03:09:43.406Z,22.73
2022-09-03T03:10:43.387Z,22.68
2022-09-03T03:11:43.377Z,22.73
2022-09-03T03:12:43.364Z,22.79
2022-09-03T03:13:43.359Z,22.73
2022-09-03T03:14:43.344Z,22.73
2022-09-03T03:15:43.325Z,22.68
2022-09-03T03:16:43.391Z,22.73
2022-09-03T03:17:43.300Z,22.73
2022-09-03T03:18:43.293Z,22.73
2022-09-03T03:19:43.273Z,22.73
2022-09-03T03:20:43.259Z,22.73
2022-09-03T03:21:43.246Z,22.79
2022-09-03T03:22:43.230Z,22.68
2022-09-03T03:23:43.220Z,22.68
2022-09-03T03:24:43.214Z,22.68
2022-09-03T03:25:43.194Z,22.79
2022-09-03T03:26:43.185Z,22.79
2022-09-03T03:27:43.171Z,22.68
2022-09-03T03:28:43.163Z,22.73
2022-09-03T03:29:43.145Z,22.73
2022-09-03T03:30:43.274Z,22.68
2022-09-03T03:31:43.123Z,22.73
2022-09-03T03:32:43.105Z,22.73
2022-09-03T03:33:43.097Z,22.73
2022-09-03T03:34:43.082Z,22.73
2022-09-03T03:35:43.069Z,22.73
2022-09-03T03:36:43.051Z,22.68
2022-09-03T03:37:43.036Z,22.68
2022-09-03T03:38:43.024Z,22.73
2022-09-03T03:39:43.041Z,22.73
2022-09-03T03:40:43.006Z,22.68
2022-09-03T03:41:42.984Z,22.68
2022-09-03T03:42:42.980Z,22.68
2022-09-03T03:43:42.961Z,22.68
2022-09-03T03:44:42.951Z,22.68
2022-09-03T03:45:42.964Z,22.84
2022-09-03T03:46:42.926Z,22.73
2022-09-03T03:47:42.910Z,22.84
2022-09-03T03:48:42.898Z,22.73
2022-09-03T03:49:42.885Z,22.73
2022-09-03T03:50:42.871Z,22.79
2022-09-03T03:51:42.856Z,22.79
2022-09-03T03:52:42.846Z,22.79
2022-09-03T03:53:42.834Z,22.73
2022-09-03T03:54:42.821Z,22.68
2022-09-03T03:55:42.809Z,22.73
2022-09-03T03:56:42.796Z,22.79
2022-09-03T03:57:42.785Z,22.63
2022-09-03T03:58:42.770Z,22.79
2022-09-03T03:59:42.757Z,22.79
2022-09-03T04:00:42.744Z,22.73
2022-09-03T04:01:42.805Z,22.73
2022-09-03T04:02:42.766Z,22.63
2022-09-03T04:03:42.709Z,22.68
2022-09-03T04:04:42.697Z,22.73
2022-09-03T04:05:48.504Z,22.63
2022-09-03T04:06:42.664Z,22.73
2022-09-03T04:07:42.654Z,22.68
2022-09-03T04:08:42.646Z,22.73
2022-09-03T04:09:42.626Z,22.73
2022-09-03T04:10:42.613Z,22.73
2022-09-03T04:11:42.604Z,22.79
2022-09-03T04:12:42.587Z,22.73
2022-09-03T04:13:42.576Z,22.63
2022-09-03T04:14:42.563Z,22.79
2022-09-03T04:15:42.553Z,22.73
2022-09-03T04:16:42.644Z,22.79
2022-09-03T04:17:42.526Z,22.68
2022-09-03T04:18:42.511Z,22.73
2022-09-03T04:19:42.502Z,22.79
2022-09-03T04:20:42.493Z,22.73
2022-09-03T04:21:42.477Z,22.73
2022-09-03T04:22:42.457Z,22.68
2022-09-03T04:23:42.450Z,22.73
2022-09-03T04:24:42.443Z,22.68
2022-09-03T04:25:42.427Z,22.68
2022-09-03T04:26:42.409Z,22.79
2022-09-03T04:27:42.409Z,22.68
2022-09-03T04:28:42.380Z,22.73
2022-09-03T04:29:42.370Z,22.63
2022-09-03T04:30:42.398Z,22.63
2022-09-03T04:31:42.352Z,22.73
2022-09-03T04:32:42.333Z,22.73
2022-09-03T04:33:42.328Z,22.68
2022-09-03T04:34:42.313Z,22.73
2022-09-03T04:35:42.300Z,22.68
2022-09-03T04:36:42.288Z,22.68
2022-09-03T04:37:42.273Z,22.73
2022-09-03T04:38:42.260Z,22.79
2022-09-03T04:39:42.291Z,22.73
2022-09-03T04:40:42.235Z,22.73
2022-09-03T04:41:42.220Z,22.73
2022-09-03T04:42:42.206Z,22.73
2022-09-03T04:43:42.198Z,22.79
2022-09-03T04:44:42.183Z,22.68
2022-09-03T04:45:42.212Z,22.73
2022-09-03T04:46:42.157Z,22.63
2022-09-03T04:47:42.144Z,22.68
2022-09-03T04:48:42.129Z,22.84
2022-09-03T04:49:42.109Z,22.84
2022-09-03T04:50:42.103Z,22.68
2022-09-03T04:51:42.108Z,22.79
2022-09-03T04:52:42.078Z,22.79
2022-09-03T04:53:42.065Z,22.73
2022-09-03T04:54:42.055Z,22.73
2022-09-03T04:55:42.041Z,22.73
2022-09-03T04:56:42.031Z,22.68
2022-09-03T04:57:42.013Z,22.73
2022-09-03T04:58:43.202Z,22.41
2022-09-03T04:59:41.986Z,22.68
2022-09-03T05:00:42.047Z,22.68
2022-09-03T05:01:41.964Z,22.79
2022-09-03T05:02:41.953Z,22.73
2022-09-03T05:03:41.934Z,22.68
2022-09-03T05:04:41.922Z,22.36
2022-09-03T05:05:41.916Z,22.30
2022-09-03T05:06:41.903Z,22.68
2022-09-03T05:07:41.883Z,22.73
2022-09-03T05:08:41.871Z,22.73
2022-09-03T05:09:41.859Z,22.68
2022-09-03T05:10:41.850Z,22.68
2022-09-03T05:11:41.829Z,22.36
2022-09-03T05:12:41.820Z,22.73
2022-09-03T05:13:41.804Z,22.68
2022-09-03T05:14:41.792Z,22.73
2022-09-03T05:15:41.783Z,22.73
2022-09-03T05:16:41.816Z,22.73
2022-09-03T05:17:41.758Z,22.68
2022-09-03T05:18:41.746Z,22.68
2022-09-03T05:19:41.732Z,22.73
2022-09-03T05:20:41.715Z,22.36
2022-09-03T05:21:41.704Z,22.73
2022-09-03T05:22:41.693Z,22.79
2022-09-03T05:23:41.677Z,22.84
2022-09-03T05:24:41.664Z,22.68
2022-09-03T05:25:41.649Z,22.73
2022-09-03T05:26:41.643Z,22.30
2022-09-03T05:27:41.629Z,22.68
2022-09-03T05:28:41.619Z,22.79
2022-09-03T05:29:41.610Z,22.73
2022-09-03T05:30:41.593Z,22.73
2022-09-03T05:31:41.644Z,22.73
2022-09-03T05:32:41.567Z,22.73
2022-09-03T05:33:41.558Z,22.68
2022-09-03T05:34:41.543Z,22.73
2022-09-03T05:35:41.527Z,22.68
2022-09-03T05:36:41.514Z,22.73
2022-09-03T05:37:41.504Z,22.73
2022-09-03T05:38:41.501Z,22.68
2022-09-03T05:39:41.536Z,22.36
2022-09-03T05:40:41.461Z,22.73
2022-09-03T05:41:41.455Z,22.25
2022-09-03T05:42:41.436Z,22.41
2022-09-03T05:43:41.424Z,22.73
2022-09-03T05:44:41.410Z,22.73
2022-09-03T05:45:41.422Z,22.73
2022-09-03T05:46:41.385Z,22.25
2022-09-03T05:47:41.371Z,22.73
2022-09-03T05:48:41.362Z,22.79
2022-09-03T05:49:41.346Z,22.79
2022-09-03T05:50:41.337Z,22.36
2022-09-03T05:51:41.323Z,22.79
2022-09-03T05:52:41.306Z,22.68
2022-09-03T05:53:41.298Z,22.79
2022-09-03T05:54:41.287Z,22.73
2022-09-03T05:55:41.273Z,22.79
2022-09-03T05:56:41.257Z,22.68
2022-09-03T05:57:41.236Z,22.73
2022-09-03T05:58:41.231Z,22.79
2022-09-03T05:59:41.222Z,22.68
2022-09-03T06:00:41.208Z,22.73
2022-09-03T06:01:41.282Z,22.68
2022-09-03T06:02:41.325Z,22.68
2022-09-03T06:03:41.313Z,22.68
2022-09-03T06:04:41.149Z,22.73
2022-09-03T06:05:41.141Z,22.73
2022-09-03T06:06:41.127Z,22.73
2022-09-03T06:07:41.116Z,22.73
2022-09-03T06:08:41.102Z,22.73
2022-09-03T06:09:41.085Z,22.73
2022-09-03T06:10:41.326Z,22.73
2022-09-03T06:11:41.059Z,22.41
2022-09-03T06:12:41.050Z,22.68
2022-09-03T06:13:41.038Z,22.73
2022-09-03T06:14:41.028Z,22.68
2022-09-03T06:15:41.009Z,22.30
2022-09-03T06:16:41.104Z,22.73
2022-09-03T06:17:40.990Z,22.73
2022-09-03T06:18:40.979Z,22.68
2022-09-03T06:19:40.961Z,22.73
2022-09-03T06:20:40.948Z,22.68
2022-09-03T06:21:40.940Z,22.79
2022-09-03T06:22:40.928Z,22.73
2022-09-03T06:23:40.984Z,22.68
2022-09-03T06:24:40.897Z,22.73
2022-09-03T06:25:40.890Z,22.30
2022-09-03T06:26:40.872Z,22.30
2022-09-03T06:27:40.858Z,22.73
2022-09-03T06:28:40.847Z,22.73
2022-09-03T06:29:40.837Z,22.73
2022-09-03T06:30:40.823Z,22.30
2022-09-03T06:31:40.948Z,22.36
2022-09-03T06:32:40.793Z,22.73
2022-09-03T06:33:40.793Z,22.84
2022-09-03T06:34:40.788Z,22.73
2022-09-03T06:35:42.907Z,22.68
2022-09-03T06:36:40.749Z,22.73
2022-09-03T06:37:40.746Z,22.63
2022-09-03T06:38:40.717Z,22.73
2022-09-03T06:39:40.811Z,22.30
2022-09-03T06:40:40.695Z,22.30
2022-09-03T06:41:40.693Z,22.68
2022-09-03T06:42:40.668Z,22.30
2022-09-03T06:43:40.654Z,22.84
2022-09-03T06:44:40.644Z,22.79
2022-09-03T06:45:40.671Z,22.36
2022-09-03T06:46:40.618Z,22.73
2022-09-03T06:47:40.605Z,22.73
2022-09-03T06:48:40.595Z,22.73
2022-09-03T06:49:40.582Z,22.36
2022-09-03T06:50:40.565Z,22.36
2022-09-03T06:51:40.558Z,22.68
2022-09-03T06:52:40.547Z,22.68
2022-09-03T06:53:40.531Z,22.63
2022-09-03T06:54:40.520Z,22.68
2022-09-03T06:55:40.501Z,22.30
2022-09-03T06:56:41.137Z,22.79
2022-09-03T06:57:40.479Z,22.41
2022-09-03T06:58:40.467Z,22.25
2022-09-03T06:59:40.454Z,22.30
2022-09-03T07:00:40.581Z,22.68
2022-09-03T07:01:40.606Z,22.25
2022-09-03T07:02:44.277Z,22.73
2022-09-03T07:03:40.402Z,22.36
2022-09-03T07:04:40.390Z,22.30
2022-09-03T07:05:40.376Z,22.36
2022-09-03T07:06:40.378Z,22.73
2022-09-03T07:07:40.351Z,22.30
2022-09-03T07:08:40.338Z,22.36
2022-09-03T07:09:41.644Z,22.36
2022-09-03T07:10:40.310Z,22.41
2022-09-03T07:11:40.297Z,22.36
2022-09-03T07:12:40.284Z,22.30
2022-09-03T07:13:40.274Z,22.79
2022-09-03T07:14:40.255Z,22.73
2022-09-03T07:15:40.246Z,22.25
2022-09-03T07:16:40.352Z,22.30
2022-09-03T07:17:40.247Z,22.36
2022-09-03T07:18:40.207Z,22.36
2022-09-03T07:19:40.221Z,22.36
2022-09-03T07:20:40.211Z,22.79
2022-09-03T07:21:40.174Z,22.36
2022-09-03T07:22:40.159Z,22.36
2022-09-03T07:23:40.144Z,22.30
2022-09-03T07:24:40.135Z,22.73
2022-09-03T07:25:40.119Z,22.73
2022-09-03T07:26:40.103Z,22.30
2022-09-03T07:27:40.091Z,22.73
2022-09-03T07:28:40.079Z,22.36
2022-09-03T07:29:40.067Z,22.36
2022-09-03T07:30:40.056Z,22.36
2022-09-03T07:31:40.274Z,22.68
2022-09-03T07:32:40.023Z,22.30
2022-09-03T07:33:40.017Z,22.36
2022-09-03T07:34:40.004Z,22.73
2022-09-03T07:35:39.992Z,22.30
2022-09-03T07:36:39.974Z,22.41
2022-09-03T07:37:39.959Z,22.73
2022-09-03T07:38:39.954Z,22.68
2022-09-03T07:39:39.989Z,22.36
2022-09-03T07:40:39.924Z,22.36
2022-09-03T07:41:39.914Z,22.30
2022-09-03T07:42:39.901Z,22.36
2022-09-03T07:43:39.894Z,22.30
2022-09-03T07:44:39.871Z,22.79
2022-09-03T07:45:39.863Z,22.36
2022-09-03T07:46:39.901Z,22.68
2022-09-03T07:47:39.834Z,22.30
2022-09-03T07:48:39.831Z,22.25
2022-09-03T07:49:39.814Z,22.30
2022-09-03T07:50:39.796Z,22.30
2022-09-03T07:51:39.784Z,22.73
2022-09-03T07:52:39.769Z,22.36
2022-09-03T07:53:39.755Z,22.30
2022-09-03T07:54:39.743Z,22.73
2022-09-03T07:55:39.730Z,22.68
2022-09-03T07:56:39.722Z,22.41
2022-09-03T07:57:39.703Z,22.36
2022-09-03T07:58:39.737Z,22.41
2022-09-03T07:59:39.681Z,22.30
2022-09-03T08:00:39.714Z,22.36
2022-09-03T08:01:41.567Z,22.41
2022-09-03T08:02:44.163Z,22.68
2022-09-03T08:03:40.744Z,22.36
2022-09-03T08:04:39.617Z,22.36
2022-09-03T08:05:39.619Z,22.36
2022-09-03T08:06:39.596Z,22.36
2022-09-03T08:07:39.582Z,22.30
2022-09-03T08:08:39.567Z,22.36
2022-09-03T08:09:39.556Z,22.36
2022-09-03T08:10:39.545Z,22.30
2022-09-03T08:11:39.553Z,22.30
2022-09-03T08:12:39.513Z,22.36
2022-09-03T08:13:39.501Z,22.30
2022-09-03T08:14:39.487Z,22.25
2022-09-03T08:15:39.469Z,22.25
2022-09-03T08:16:39.807Z,22.36
2022-09-03T08:17:39.447Z,22.36
2022-09-03T08:18:39.434Z,22.30
2022-09-03T08:19:39.430Z,22.84
2022-09-03T08:20:39.408Z,22.73
2022-09-03T08:21:39.402Z,22.36
2022-09-03T08:22:39.385Z,22.25
2022-09-03T08:23:39.370Z,22.30
2022-09-03T08:24:39.359Z,22.30
2022-09-03T08:25:39.349Z,22.25
2022-09-03T08:26:39.334Z,22.36
2022-09-03T08:27:39.321Z,22.30
2022-09-03T08:28:39.311Z,22.36
2022-09-03T08:29:39.298Z,22.30
2022-09-03T08:30:39.291Z,22.36
2022-09-03T08:31:39.374Z,22.36
2022-09-03T08:32:39.259Z,22.36
2022-09-03T08:33:39.246Z,22.36
2022-09-03T08:34:39.230Z,22.36
2022-09-03T08:35:39.214Z,22.36
2022-09-03T08:36:39.209Z,22.41
2022-09-03T08:37:39.195Z,22.30
2022-09-03T08:38:39.187Z,22.46
2022-09-03T08:39:39.240Z,22.46
2022-09-03T08:40:39.156Z,22.30
2022-09-03T08:41:39.140Z,22.41
2022-09-03T08:42:39.136Z,22.30
2022-09-03T08:43:39.113Z,22.36
2022-09-03T08:44:39.101Z,22.30
2022-09-03T08:45:39.091Z,22.36
2022-09-03T08:46:39.170Z,22.30
2022-09-03T08:47:39.082Z,22.36
2022-09-03T08:48:39.051Z,22.30
2022-09-03T08:49:39.038Z,22.36
2022-09-03T08:50:39.021Z,22.36
2022-09-03T08:51:39.008Z,22.25
2022-09-03T08:52:39.014Z,22.30
2022-09-03T08:53:38.985Z,22.36
2022-09-03T08:54:38.985Z,22.25
2022-09-03T08:55:38.956Z,22.30
2022-09-03T08:56:38.943Z,22.36
2022-09-03T08:57:38.929Z,22.36
2022-09-03T08:58:38.928Z,22.36
2022-09-03T08:59:38.904Z,22.30
2022-09-03T09:00:38.896Z,22.30
2022-09-03T09:01:39.051Z,22.36
2022-09-03T09:02:39.074Z,22.30
2022-09-03T09:03:38.856Z,22.30
2022-09-03T09:04:38.840Z,22.30
2022-09-03T09:05:38.827Z,22.36
2022-09-03T09:06:38.819Z,22.30
2022-09-03T09:07:38.803Z,22.36
2022-09-03T09:08:38.792Z,22.30
2022-09-03T09:09:38.782Z,22.30
2022-09-03T09:10:38.766Z,22.30
2022-09-03T09:11:38.752Z,22.30
2022-09-03T09:12:45.633Z,22.30
2022-09-03T09:13:39.773Z,22.36
2022-09-03T09:14:39.501Z,22.36
2022-09-03T09:15:38.739Z,22.30
2022-09-03T09:16:38.696Z,22.36
2022-09-03T09:17:38.677Z,22.36
2022-09-03T09:18:38.662Z,22.30
2022-09-03T09:19:38.652Z,22.30
2022-09-03T09:20:38.637Z,22.30
2022-09-03T09:21:38.630Z,22.36
2022-09-03T09:22:38.610Z,22.36
2022-09-03T09:23:38.600Z,22.36
2022-09-03T09:24:38.592Z,22.30
2022-09-03T09:25:38.577Z,22.25
2022-09-03T09:26:38.564Z,22.36
2022-09-03T09:27:38.549Z,22.30
2022-09-03T09:28:38.542Z,22.36
2022-09-03T09:29:38.523Z,22.36
2022-09-03T09:30:38.510Z,22.36
2022-09-03T09:31:38.562Z,22.36
2022-09-03T09:32:38.486Z,22.30
2022-09-03T09:33:38.473Z,22.25
2022-09-03T09:34:38.461Z,22.30
2022-09-03T09:35:38.449Z,22.30
2022-09-03T09:36:38.432Z,22.36
2022-09-03T09:37:38.422Z,22.30
2022-09-03T09:38:38.415Z,22.41
2022-09-03T09:39:38.477Z,22.30
2022-09-03T09:40:41.475Z,22.30
2022-09-03T09:41:39.407Z,22.36
2022-09-03T09:42:38.354Z,22.36
2022-09-03T09:43:38.343Z,22.30
2022-09-03T09:44:38.329Z,22.30
2022-09-03T09:45:38.329Z,22.36
2022-09-03T09:46:38.332Z,22.30
2022-09-03T09:47:38.299Z,22.30
2022-09-03T09:48:38.280Z,22.36
2022-09-03T09:49:38.276Z,22.36
2022-09-03T09:50:38.257Z,21.92
2022-09-03T09:51:38.240Z,22.36
2022-09-03T09:52:38.235Z,22.30
2022-09-03T09:53:38.218Z,22.30
2022-09-03T09:54:38.210Z,22.03
2022-09-03T09:55:38.196Z,22.36
2022-09-03T09:56:38.179Z,21.98
2022-09-03T09:57:38.167Z,22.30
2022-09-03T09:58:38.169Z,21.87
2022-09-03T09:59:38.154Z,22.03
2022-09-03T10:00:38.130Z,21.92
2022-09-03T10:01:38.174Z,21.98
2022-09-03T10:02:38.207Z,21.92
2022-09-03T10:03:38.092Z,21.98
2022-09-03T10:04:38.079Z,21.98
2022-09-03T10:05:38.066Z,21.92
2022-09-03T10:06:38.055Z,21.98
2022-09-03T10:07:38.035Z,21.98
2022-09-03T10:08:38.022Z,21.98
2022-09-03T10:09:38.016Z,22.36
2022-09-03T10:10:38.001Z,21.98
2022-09-03T10:11:37.990Z,21.87
2022-09-03T10:12:37.979Z,21.92
2022-09-03T10:13:37.970Z,21.92
2022-09-03T10:14:37.952Z,21.98
2022-09-03T10:15:38.001Z,21.92
2022-09-03T10:16:37.936Z,21.92
2022-09-03T10:17:37.913Z,21.98
2022-09-03T10:18:37.897Z,21.87
2022-09-03T10:19:37.895Z,21.98
2022-09-03T10:20:37.880Z,21.92
2022-09-03T10:21:37.860Z,21.98
2022-09-03T10:22:37.851Z,21.92
2022-09-03T10:23:37.853Z,21.92
2022-09-03T10:24:37.820Z,21.98
2022-09-03T10:25:37.811Z,21.87
2022-09-03T10:26:37.795Z,22.03
2022-09-03T10:27:37.786Z,21.98
2022-09-03T10:28:37.772Z,21.92
2022-09-03T10:29:37.761Z,21.92
2022-09-03T10:30:37.853Z,21.98
2022-09-03T10:31:37.733Z,21.92
2022-09-03T10:32:39.359Z,21.92
2022-09-03T10:33:37.716Z,21.98
2022-09-03T10:34:37.710Z,21.98
2022-09-03T10:35:37.685Z,21.92
2022-09-03T10:36:37.671Z,21.87
2022-09-03T10:37:37.661Z,21.98
2022-09-03T10:38:37.651Z,21.92
2022-09-03T10:39:42.806Z,21.92
2022-09-03T10:40:37.635Z,21.92
2022-09-03T10:41:37.612Z,22.03
2022-09-03T10:42:37.598Z,21.98
2022-09-03T10:43:37.588Z,21.87
2022-09-03T10:44:37.569Z,21.92
2022-09-03T10:45:38.523Z,21.92
2022-09-03T10:46:37.671Z,21.98
2022-09-03T10:47:37.534Z,21.87
2022-09-03T10:48:37.536Z,21.98
2022-09-03T10:49:37.510Z,22.03
2022-09-03T10:50:37.500Z,21.98
2022-09-03T10:51:37.486Z,21.92
2022-09-03T10:52:37.471Z,21.92
2022-09-03T10:53:37.466Z,21.92
2022-09-03T10:54:37.452Z,21.98
2022-09-03T10:55:37.438Z,21.92
2022-09-03T10:56:37.424Z,21.92
2022-09-03T10:57:37.406Z,21.92
2022-09-03T10:58:37.400Z,21.98
2022-09-03T10:59:37.386Z,21.92
2022-09-03T11:00:37.371Z,21.98
2022-09-03T11:01:37.386Z,21.92
2022-09-03T11:02:37.388Z,21.98
2022-09-03T11:03:37.362Z,21.92
2022-09-03T11:04:37.793Z,21.92
2022-09-03T11:05:37.307Z,21.92
2022-09-03T11:06:37.295Z,21.92
2022-09-03T11:07:37.281Z,21.98
2022-09-03T11:08:37.269Z,21.92
2022-09-03T11:09:37.262Z,21.98
2022-09-03T11:10:37.248Z,21.98
2022-09-03T11:11:37.230Z,21.92
2022-09-03T11:12:37.217Z,21.92
2022-09-03T11:13:37.211Z,21.98
2022-09-03T11:14:37.196Z,21.92
2022-09-03T11:15:37.259Z,21.92
2022-09-03T11:16:37.174Z,21.92
2022-09-03T11:17:37.169Z,21.92
2022-09-03T11:18:37.154Z,21.98
2022-09-03T11:19:37.131Z,21.98
2022-09-03T11:20:37.120Z,21.98
2022-09-03T11:21:37.103Z,21.98
2022-09-03T11:22:37.091Z,21.92
2022-09-03T11:23:37.144Z,21.98
2022-09-03T11:24:37.071Z,21.92
2022-09-03T11:25:37.078Z,21.92
2022-09-03T11:26:37.044Z,21.98
2022-09-03T11:27:37.029Z,21.98
2022-09-03T11:28:37.016Z,21.98
2022-09-03T11:29:37.005Z,21.92
2022-09-03T11:30:37.050Z,21.92
2022-09-03T11:31:36.991Z,21.92
2022-09-03T11:32:36.971Z,21.98
2022-09-03T11:33:36.975Z,21.87
2022-09-03T11:34:36.941Z,21.98
2022-09-03T11:35:36.928Z,21.92
2022-09-03T11:36:36.924Z,21.92
2022-09-03T11:37:36.914Z,21.92
2022-09-03T11:38:36.899Z,21.92
2022-09-03T11:39:36.964Z,21.98
2022-09-03T11:40:36.865Z,21.98
2022-09-03T11:41:36.856Z,21.98
2022-09-03T11:42:36.856Z,21.92
2022-09-03T11:43:36.831Z,21.92
2022-09-03T11:44:36.818Z,21.98
2022-09-03T11:45:36.813Z,21.92
2022-09-03T11:46:36.859Z,22.03
2022-09-03T11:47:36.791Z,21.98
2022-09-03T11:48:36.762Z,21.92
2022-09-03T11:49:36.755Z,21.92
2022-09-03T11:51:36.735Z,21.98
2022-09-03T11:52:36.718Z,21.92
2022-09-03T11:53:36.705Z,21.92
2022-09-03T11:54:36.694Z,21.98
2022-09-03T11:55:43.676Z,21.87
2022-09-03T11:56:37.697Z,21.92
2022-09-03T11:57:36.647Z,21.98
2022-09-03T11:58:36.644Z,21.87
2022-09-03T11:59:36.629Z,21.92
2022-09-03T12:00:36.618Z,21.92
2022-09-03T12:01:36.599Z,21.87
2022-09-03T12:02:36.654Z,21.92
2022-09-03T12:03:36.585Z,21.98
2022-09-03T12:04:36.637Z,21.87
2022-09-03T12:05:36.554Z,21.98
2022-09-03T12:06:36.542Z,21.92
2022-09-03T12:07:36.532Z,21.92
2022-09-03T12:08:36.514Z,21.87
2022-09-03T12:09:36.499Z,21.98
2022-09-03T12:10:36.503Z,21.98
2022-09-03T12:11:36.480Z,21.92
2022-09-03T12:12:36.466Z,21.98
2022-09-03T12:13:36.447Z,21.87
2022-09-03T12:14:36.437Z,21.98
2022-09-03T12:15:36.481Z,21.92
2022-09-03T12:16:36.406Z,21.87
2022-09-03T12:17:36.402Z,21.98
2022-09-03T12:18:36.382Z,21.92
2022-09-03T12:19:36.369Z,21.92
2022-09-03T12:20:36.357Z,21.98
2022-09-03T12:21:36.346Z,21.92
2022-09-03T12:22:36.332Z,21.92
2022-09-03T12:23:36.321Z,21.98
2022-09-03T12:24:38.200Z,21.92
2022-09-03T12:25:36.307Z,21.92
2022-09-03T12:26:36.286Z,21.92
2022-09-03T12:27:36.280Z,22.03
2022-09-03T12:28:36.260Z,21.98
2022-09-03T12:29:36.248Z,21.92
2022-09-03T12:30:36.253Z,22.03
2022-09-03T12:31:40.060Z,21.92
2022-09-03T12:32:37.401Z,21.92
2022-09-03T12:33:36.208Z,21.92
2022-09-03T12:34:36.186Z,21.92
2022-09-03T12:36:36.149Z,21.92
2022-09-03T12:39:00.691Z,21.98
2022-09-03T12:41:23.086Z,22.03
2022-09-03T12:41:37.187Z,21.92
2022-09-03T12:42:36.089Z,21.92
2022-09-03T12:43:38.165Z,21.92
2022-09-03T12:44:36.063Z,21.92
2022-09-03T12:46:36.147Z,21.98
2022-09-03T12:47:37.553Z,22.03
2022-09-03T12:48:36.008Z,21.98
2022-09-03T12:49:35.998Z,21.92
2022-09-03T12:50:41.586Z,21.92
2022-09-03T12:51:56.278Z,21.98
2022-09-03T12:52:36.990Z,21.98
2022-09-03T12:53:35.955Z,21.92
2022-09-03T12:54:35.939Z,21.92
2022-09-03T12:55:35.968Z,21.92
2022-09-03T12:56:35.909Z,22.03
2022-09-03T12:57:35.895Z,22.03